Time;durP1;ratioP1;P1;durP2;ratioP2;P2;SDS_P1;SDS_P2;PMS_P1;PMS_P2;Temp;Humidity;BMP_temperature;BMP_pressure;BME280_temperature;BME280_humidity;BME280_pressure;Samples;Min_cycle;Max_cycle;Signal;HPM_P1;HPM_P2
2023/03/06 00:01:06;;;;;;;47.42;22.50;;;;;;;3.55;82.99;100323.69;4953642;28;20055;-83
2023/03/06 00:03:36;;;;;;;48.97;21.00;;;;;;;3.54;81.50;100322.03;4944884;28;20050;-85
2023/03/06 00:06:03;;;;;;;46.00;21.65;;;;;;;3.46;81.12;100319.13;4956632;28;20566;-85
2023/03/06 00:08:30;;;;;;;41.25;20.02;;;;;;;3.41;80.00;100312.50;4940046;28;20078;-86
2023/03/06 00:10:58;;;;;;;44.35;20.20;;;;;;;3.48;79.66;100317.19;4957233;28;20047;-85
2023/03/06 00:13:28;;;;;;;40.90;19.40;;;;;;;3.38;79.49;100316.25;4935583;28;20046;-86
2023/03/06 00:16:00;;;;;;;36.47;18.55;;;;;;;3.31;79.34;100320.38;4956121;28;20508;-85
2023/03/06 00:18:29;;;;;;;37.78;18.63;;;;;;;3.31;79.20;100326.53;4963467;28;20034;-86
2023/03/06 00:20:57;;;;;;;35.85;17.38;;;;;;;3.22;78.69;100324.59;4924201;28;20094;-87
2023/03/06 00:23:26;;;;;;;33.40;16.75;;;;;;;3.20;77.47;100323.03;4966435;28;20133;-84
2023/03/06 00:25:52;;;;;;;37.63;16.95;;;;;;;3.25;76.99;100320.84;4922165;29;20051;-85
2023/03/06 00:28:18;;;;;;;;;;;;;;;3.15;76.97;100324.22;4968226;28;20047;-85
2023/03/06 00:30:46;;;;;;;;;;;;;;;3.12;76.61;100327.16;4943322;28;19922;-86
2023/03/06 00:33:13;;;;;;;28.30;14.18;;;;;;;3.09;76.84;100330.06;4955726;28;19925;-86
2023/03/06 00:35:40;;;;;;;34.17;15.07;;;;;;;3.08;76.63;100319.53;4923301;28;20130;-85
2023/03/06 00:38:06;;;;;;;29.95;14.95;;;;;;;3.03;76.25;100311.94;4944534;28;20046;-85
2023/03/06 00:40:33;;;;;;;27.83;14.20;;;;;;;2.96;75.45;100316.03;4957564;28;20036;-86
2023/03/06 00:43:00;;;;;;;29.88;14.13;;;;;;;2.92;75.62;100314.56;4960592;28;20043;-86
2023/03/06 00:45:26;;;;;;;27.40;13.88;;;;;;;2.82;75.14;100316.28;4941920;28;20047;-86
2023/03/06 00:47:56;;;;;;;25.77;13.07;;;;;;;2.90;74.20;100320.03;4945801;28;20047;-84
2023/03/06 00:50:24;;;;;;;23.55;12.30;;;;;;;2.94;73.87;100317.97;4944051;28;20047;-85
2023/03/06 00:52:50;;;;;;;23.67;12.38;;;;;;;2.97;73.61;100317.72;4925679;28;20047;-85
2023/03/06 00:55:17;;;;;;;26.20;13.00;;;;;;;2.85;73.38;100303.59;4940022;28;20031;-86
2023/03/06 00:57:43;;;;;;;23.65;12.18;;;;;;;2.81;72.68;100307.47;4961584;28;20100;-86
2023/03/06 01:00:09;;;;;;;28.45;12.43;;;;;;;2.84;72.80;100301.06;4951349;28;20062;-85
2023/03/06 01:02:36;;;;;;;;;;;;;;;2.95;72.36;100314.34;4939311;28;20471;-85
2023/03/06 01:05:01;;;;;;;22.65;11.43;;;;;;;2.61;72.28;100278.97;4957065;28;20004;-84
2023/03/06 01:07:32;;;;;;;22.38;11.18;;;;;;;2.88;71.92;100307.81;4927188;28;20054;-85
2023/03/06 01:09:58;;;;;;;21.58;10.93;;;;;;;2.80;71.81;100286.34;4936372;28;20039;-87
2023/03/06 01:12:23;;;;;;;20.95;11.23;;;;;;;2.90;71.57;100311.19;4954078;28;20050;-84
2023/03/06 01:14:49;;;;;;;22.25;11.05;;;;;;;2.89;71.72;100301.56;4953373;28;20061;-84
2023/03/06 01:17:15;;;;;;;23.60;12.27;;;;;;;2.88;71.44;100305.16;4941753;28;20451;-84
2023/03/06 01:19:41;;;;;;;21.77;11.30;;;;;;;2.82;71.01;100287.06;4927861;28;20371;-85
2023/03/06 01:22:06;;;;;;;21.53;10.93;;;;;;;2.94;69.99;100296.72;4944183;28;20043;-85
2023/03/06 01:24:32;;;;;;;19.45;11.10;;;;;;;2.89;69.76;100288.28;4931314;28;20302;-84
2023/03/06 01:27:00;;;;;;;21.13;10.03;;;;;;;2.98;69.69;100310.63;4907606;28;20471;-84
2023/03/06 01:29:26;;;;;;;20.10;10.40;;;;;;;2.99;69.22;100315.78;4942524;28;20027;-83
2023/03/06 01:31:51;;;;;;;20.70;10.57;;;;;;;2.91;69.26;100304.94;4940899;28;20043;-83
2023/03/06 01:34:17;;;;;;;20.40;10.63;;;;;;;3.01;69.02;100308.53;4939337;28;20055;-82
2023/03/06 01:36:43;;;;;;;26.80;11.45;;;;;;;3.03;69.43;100309.28;4936822;28;20707;-86
2023/03/06 01:39:08;;;;;;;20.33;10.65;;;;;;;2.91;69.63;100307.59;4962653;28;20194;-85
2023/03/06 01:41:35;;;;;;;22.23;11.10;;;;;;;2.96;69.21;100318.69;4960297;28;20183;-85
2023/03/06 01:44:01;;;;;;;18.00;10.07;;;;;;;3.01;68.88;100319.16;4929534;28;20366;-86
2023/03/06 01:46:43;;;;;;;16.87;9.50;;;;;;;2.98;67.95;100314.09;4945848;28;20157;-85
2023/03/06 01:49:25;;;;;;;16.15;9.00;;;;;;;3.00;67.17;100321.94;4944285;28;20055;-84
2023/03/06 01:51:55;;;;;;;16.85;9.30;;;;;;;2.78;67.98;100312.16;4951922;28;20046;-84
2023/03/06 01:54:39;;;;;;;15.75;8.95;;;;;;;2.83;67.41;100329.41;4955705;28;20368;-84
2023/03/06 01:57:08;;;;;;;18.25;8.93;;;;;;;2.93;67.37;100332.22;4940073;28;20051;-85
2023/03/06 01:59:34;;;;;;;14.77;8.52;;;;;;;2.84;67.22;100338.25;4956658;28;20074;-85
2023/03/06 02:02:01;;;;;;;15.68;8.55;;;;;;;2.75;67.09;100324.69;4934585;28;20425;-84
2023/03/06 02:04:28;;;;;;;16.77;8.52;;;;;;;2.58;66.90;100317.22;4955353;28;20559;-86
2023/03/06 02:06:54;;;;;;;15.38;8.70;;;;;;;2.69;67.44;100349.09;4953478;28;20404;-84
2023/03/06 02:09:22;;;;;;;17.58;8.50;;;;;;;2.71;67.10;100355.09;4943238;28;20043;-85
2023/03/06 02:11:52;;;;;;;14.15;8.02;;;;;;;2.43;67.34;100313.06;4953488;28;20043;-85
2023/03/06 02:14:18;;;;;;;15.43;8.40;;;;;;;2.55;67.34;100343.97;4938857;28;20058;-86
2023/03/06 02:16:45;;;;;;;16.95;8.48;;;;;;;2.59;67.44;100349.91;4921478;28;20110;-85
2023/03/06 02:19:25;;;;;;;19.80;8.65;;;;;;;2.64;67.55;100364.50;4958219;28;20039;-85
2023/03/06 02:21:51;;;;;;;18.00;8.90;;;;;;;2.46;68.26;100355.31;4933679;28;20047;-84
2023/03/06 02:24:48;;;;;;;14.90;8.27;;;;;;;2.59;67.89;100374.63;4940248;28;20085;-84
2023/03/06 02:27:14;;;;;;;19.90;8.95;;;;;;;2.54;67.78;100374.97;4946855;28;21546;-85
2023/03/06 02:29:41;;;;;;;17.50;8.33;;;;;;;2.47;67.72;100359.63;4939986;28;20043;-85
2023/03/06 02:32:07;;;;;;;17.25;8.77;;;;;;;2.61;67.28;100372.69;4954488;28;20290;-85
2023/03/06 02:34:36;;;;;;;17.42;8.80;;;;;;;2.57;67.63;100373.88;4933434;28;20046;-82
2023/03/06 02:37:11;;;;;;;16.20;8.18;;;;;;;2.55;68.18;100367.84;4956450;28;20070;-85
2023/03/06 02:39:44;;;;;;;17.17;8.40;;;;;;;2.52;67.63;100360.97;4940292;28;20485;-85
2023/03/06 02:42:12;;;;;;;16.05;7.97;;;;;;;2.37;67.14;100356.00;4954031;28;20150;-84
2023/03/06 02:44:38;;;;;;;15.38;8.35;;;;;;;2.50;67.33;100356.75;4934699;28;20457;-86
2023/03/06 02:47:04;;;;;;;13.75;7.70;;;;;;;2.71;66.86;100376.34;4935292;28;20082;-84
2023/03/06 02:49:29;;;;;;;15.90;7.97;;;;;;;2.60;66.87;100357.75;4956580;28;20143;-83
2023/03/06 02:51:55;;;;;;;16.67;8.67;;;;;;;2.57;66.96;100357.97;4934266;28;20171;-85
2023/03/06 02:54:21;;;;;;;16.52;8.82;;;;;;;2.61;67.43;100379.81;4938939;28;20043;-85
2023/03/06 02:56:48;;;;;;;17.83;9.02;;;;;;;2.56;67.16;100385.47;4915456;28;20491;-86
2023/03/06 02:59:15;;;;;;;17.02;9.00;;;;;;;2.55;66.92;100370.50;4951353;28;20468;-84
2023/03/06 03:01:40;;;;;;;18.25;9.40;;;;;;;2.59;67.09;100381.75;4951602;28;20054;-84
2023/03/06 03:04:06;;;;;;;16.80;9.20;;;;;;;2.44;67.40;100374.00;4950789;28;20103;-84
2023/03/06 03:06:31;;;;;;;20.40;9.53;;;;;;;2.50;67.32;100372.66;4920759;28;20306;-85
2023/03/06 03:08:57;;;;;;;19.73;8.97;;;;;;;2.54;67.15;100384.75;4921712;28;20058;-85
2023/03/06 03:11:23;;;;;;;17.80;9.15;;;;;;;2.46;67.37;100376.53;4932707;28;20436;-84
2023/03/06 03:13:48;;;;;;;15.77;7.90;;;;;;;2.47;67.08;100367.59;4937452;28;20058;-85
2023/03/06 03:16:15;;;;;;;16.77;8.10;;;;;;;2.38;66.91;100366.47;4953609;28;20436;-84
2023/03/06 03:18:46;;;;;;;15.65;8.00;;;;;;;2.53;66.36;100383.06;4924274;28;20755;-83
2023/03/06 03:21:12;;;;;;;15.27;7.63;;;;;;;2.36;66.11;100365.75;4949109;28;20031;-84
2023/03/06 03:23:38;;;;;;;19.92;8.02;;;;;;;2.29;65.82;100360.09;4940876;28;20042;-84
2023/03/06 03:26:16;;;;;;;14.65;7.60;;;;;;;2.33;65.67;100358.88;4940592;28;20298;-83
2023/03/06 03:28:43;;;;;;;14.23;7.95;;;;;;;2.48;65.84;100379.88;4919861;28;20448;-83
2023/03/06 03:31:10;;;;;;;16.35;8.77;;;;;;;2.45;65.61;100365.06;4943903;28;21655;-83
2023/03/06 03:33:36;;;;;;;16.17;8.18;;;;;;;2.36;65.56;100343.69;4918234;28;20035;-84
2023/03/06 03:36:03;;;;;;;16.40;8.00;;;;;;;2.47;65.36;100375.56;4961034;28;20038;-85
2023/03/06 03:38:30;;;;;;;15.90;8.45;;;;;;;2.54;65.02;100374.13;4932321;28;20051;-84
2023/03/06 03:40:55;;;;;;;20.23;8.00;;;;;;;2.45;64.80;100357.09;4945560;28;20047;-84
2023/03/06 03:43:22;;;;;;;17.10;8.13;;;;;;;2.52;64.77;100366.28;4933136;28;20046;-85
2023/03/06 03:45:47;;;;;;;12.23;7.45;;;;;;;2.65;64.62;100379.47;4948049;28;20050;-83
2023/03/06 03:48:13;;;;;;;15.88;8.07;;;;;;;2.61;64.22;100354.13;4911068;28;20035;-82
2023/03/06 03:50:39;;;;;;;16.37;8.00;;;;;;;2.71;64.12;100371.03;4958211;28;20035;-84
2023/03/06 03:53:05;;;;;;;18.23;7.90;;;;;;;2.79;63.71;100377.59;4923142;28;20454;-83
2023/03/06 03:55:31;;;;;;;13.75;8.15;;;;;;;2.85;64.00;100377.09;4962504;28;20423;-84
2023/03/06 03:57:57;;;;;;;15.63;7.53;;;;;;;2.81;63.76;100370.31;4958260;28;20095;-85
2023/03/06 04:00:22;;;;;;;18.20;7.70;;;;;;;2.89;63.60;100381.22;4942044;28;20062;-84
2023/03/06 04:02:48;;;;;;;13.80;7.43;;;;;;;2.92;63.60;100383.63;4959029;28;20045;-85
2023/03/06 04:05:14;;;;;;;15.38;7.65;;;;;;;3.03;63.38;100396.91;4956332;28;20423;-83
2023/03/06 04:07:40;;;;;;;16.55;8.20;;;;;;;2.95;63.11;100375.44;4947647;28;20042;-85
2023/03/06 04:10:08;;;;;;;16.42;7.82;;;;;;;3.03;62.75;100388.94;4939542;28;20432;-83
2023/03/06 04:12:35;;;;;;;15.93;7.63;;;;;;;3.19;62.01;100401.06;4943423;28;20043;-84
2023/03/06 04:15:01;;;;;;;13.27;6.93;;;;;;;3.30;61.75;100401.03;4941890;28;20035;-84
2023/03/06 04:17:27;;;;;;;15.93;7.72;;;;;;;3.28;61.33;100393.22;4939669;28;20445;-85
2023/03/06 04:19:52;;;;;;;16.50;7.80;;;;;;;3.23;61.38;100394.50;4956526;28;20055;-84
2023/03/06 04:22:18;;;;;;;13.27;7.27;;;;;;;3.19;61.47;100385.97;4954758;28;20051;-85
2023/03/06 04:24:48;;;;;;;19.77;8.10;;;;;;;3.24;61.22;100406.84;4917953;28;20117;-84
2023/03/06 04:27:14;;;;;;;14.95;7.43;;;;;;;3.26;61.38;100394.28;4939843;28;20246;-83
2023/03/06 04:29:40;;;;;;;13.85;7.55;;;;;;;3.26;61.56;100410.25;4955275;28;20117;-84
2023/03/06 04:32:05;;;;;;;13.65;7.10;;;;;;;3.09;61.23;100387.63;4949535;28;20541;-84
2023/03/06 04:34:31;;;;;;;14.43;7.38;;;;;;;3.22;61.13;100398.16;4947430;28;20142;-83
2023/03/06 04:36:58;;;;;;;13.30;7.20;;;;;;;3.14;61.03;100393.44;4926806;28;20043;-85
2023/03/06 04:39:23;;;;;;;13.27;7.45;;;;;;;3.15;60.73;100398.63;4937316;28;20923;-84
2023/03/06 04:41:50;;;;;;;14.67;7.27;;;;;;;3.27;60.69;100403.94;4917473;28;20034;-85
2023/03/06 04:44:15;;;;;;;16.25;7.80;;;;;;;3.37;60.50;100421.72;4943955;28;20551;-86
2023/03/06 04:46:42;;;;;;;13.07;7.15;;;;;;;3.38;60.42;100420.72;4920572;28;20039;-84
2023/03/06 04:49:08;;;;;;;14.00;6.90;;;;;;;3.27;60.82;100410.09;4958684;28;20133;-85
2023/03/06 04:51:35;;;;;;;14.90;7.33;;;;;;;3.27;60.63;100410.09;4952034;28;20110;-84
2023/03/06 04:54:03;;;;;;;16.65;7.15;;;;;;;3.28;61.36;100416.28;4930622;28;20046;-84
2023/03/06 04:56:31;;;;;;;14.43;7.53;;;;;;;3.34;61.19;100424.59;4928356;28;20054;-84
2023/03/06 04:58:56;;;;;;;21.40;8.13;;;;;;;3.42;60.93;100433.78;4942001;28;20520;-84
2023/03/06 05:01:22;;;;;;;17.27;7.72;;;;;;;3.38;60.81;100423.38;4927481;28;20066;-85
2023/03/06 05:03:51;;;;;;;14.70;7.60;;;;;;;3.49;60.43;100425.22;4945650;28;20065;-83
2023/03/06 05:06:16;;;;;;;19.20;8.00;;;;;;;3.48;60.26;100430.66;4939939;28;20400;-83
2023/03/06 05:08:43;;;;;;;15.88;8.55;;;;;;;3.32;60.12;100401.75;4922413;28;20058;-85
2023/03/06 05:11:08;;;;;;;;;;;;;;;3.63;60.00;100452.50;4928587;28;20032;-83
2023/03/06 05:13:34;;;;;;;15.85;8.30;;;;;;;3.40;60.12;100419.78;4958897;28;20303;-86
2023/03/06 05:16:08;;;;;;;16.38;8.50;;;;;;;3.49;59.52;100435.84;4938361;29;20070;-87
2023/03/06 05:18:34;;;;;;;18.52;8.55;;;;;;;3.53;59.73;100447.06;4940081;28;20465;-85
2023/03/06 05:20:59;;;;;;;18.52;10.40;;;;;;;3.45;60.11;100423.75;4924472;28;20085;-85
2023/03/06 05:23:32;;;;;;;24.65;9.23;;;;;;;3.66;59.63;100447.81;4962351;28;20500;-88
2023/03/06 05:25:58;;;;;;;16.55;8.85;;;;;;;3.71;59.67;100450.09;4941708;28;20054;-89
2023/03/06 05:28:24;;;;;;;17.55;8.68;;;;;;;3.79;59.09;100450.31;4931469;28;20427;-90
2023/03/06 05:30:52;;;;;;;20.92;8.82;;;;;;;3.72;58.77;100418.06;4937143;28;20475;-88
2023/03/06 05:33:17;;;;;;;25.75;8.38;;;;;;;4.00;58.31;100458.38;4951529;28;20409;-86
2023/03/06 05:35:47;;;;;;;20.80;8.77;;;;;;;4.07;57.78;100461.41;4954205;28;20459;-90
2023/03/06 05:38:13;;;;;;;25.75;9.55;;;;;;;4.20;57.54;100452.31;4955515;28;20055;-88
2023/03/06 05:40:43;;;;;;;22.77;8.93;;;;;;;4.33;57.32;100448.63;4948569;28;20043;-86
2023/03/06 05:43:09;;;;;;;24.25;9.68;;;;;;;4.33;56.58;100452.16;4928943;28;20126;-90
2023/03/06 05:45:36;;;;;;;18.48;8.65;;;;;;;4.58;56.12;100466.09;4955155;28;20130;-88
2023/03/06 05:48:09;;;;;;;19.67;8.90;;;;;;;4.63;55.88;100453.25;4951072;28;20459;-88
2023/03/06 05:50:35;;;;;;;17.70;8.90;;;;;;;4.61;55.72;100439.22;4936425;28;20423;-86
2023/03/06 05:53:01;;;;;;;22.67;8.65;;;;;;;4.82;54.92;100450.75;4939432;28;20050;-90
2023/03/06 05:55:28;;;;;;;21.90;9.40;;;;;;;4.88;54.87;100445.88;4972625;28;20134;-86
2023/03/06 05:57:56;;;;;;;17.27;8.55;;;;;;;5.04;54.43;100446.28;4956049;28;20078;-90
2023/03/06 06:00:23;;;;;;;18.58;8.82;;;;;;;5.09;53.49;100460.03;4976933;28;20101;-94
2023/03/06 06:03:02;;;;;;;20.77;9.77;;;;;;;5.15;52.85;100453.34;4965492;28;20027;-94
2023/03/06 06:05:28;;;;;;;18.55;8.68;;;;;;;6.67;49.20;100455.94;4987026;28;20026;-91
2023/03/06 06:07:54;;;;;;;19.60;8.00;;;;;;;8.16;46.14;100480.16;5031590;23;20067;-89
2023/03/06 06:10:22;;;;;;;;;;;;;;;9.69;42.49;100481.81;4929197;29;20044;-87
2023/03/06 06:12:53;;;;;;;13.48;7.72;;;;;;;10.26;40.10;100457.88;4930352;29;19970;-89
2023/03/06 06:15:19;;;;;;;16.00;8.63;;;;;;;11.10;38.47;100429.09;4954218;28;20050;-89
2023/03/06 06:18:03;;;;;;;14.30;7.30;;;;;;;11.75;36.56;100468.50;4953725;28;20043;-87
2023/03/06 06:20:30;;;;;;;19.42;7.72;;;;;;;10.30;38.43;100448.53;4931119;29;20043;-92
2023/03/06 06:22:56;;;;;;;14.63;7.15;;;;;;;9.75;39.33;100462.41;4920560;29;20054;-93
2023/03/06 06:25:31;;;;;;;14.18;7.25;;;;;;;8.81;40.48;100453.22;4921386;29;20040;-95
2023/03/06 06:28:03;;;;;;;19.50;7.30;;;;;;;9.46;39.38;100463.59;4933141;29;20062;-94
2023/03/06 06:30:41;;;;;;;17.50;7.18;;;;;;;10.17;38.74;100477.66;4921989;29;20112;-95
2023/03/06 06:33:08;;;;;;;12.25;7.07;;;;;;;10.97;37.45;100480.69;4898775;29;20047;-93
2023/03/06 06:35:37;;;;;;;14.63;7.85;;;;;;;11.31;35.87;100452.78;4924182;29;20063;-94
2023/03/06 06:38:06;;;;;;;13.65;6.50;;;;;;;12.18;34.40;100465.47;4908043;29;20062;-93
2023/03/06 06:40:32;;;;;;;11.18;6.15;;;;;;;11.15;35.17;100485.91;4921118;29;20040;-92
2023/03/06 06:42:57;;;;;;;12.73;6.70;;;;;;;10.76;36.55;100494.63;4901545;29;20147;-93
2023/03/06 06:45:23;;;;;;;14.05;6.40;;;;;;;9.99;37.46;100487.66;4904064;29;20051;-85
2023/03/06 06:47:50;;;;;;;9.45;5.90;;;;;;;9.27;38.69;100487.91;4932990;29;20055;-88
2023/03/06 06:50:17;;;;;;;12.50;6.38;;;;;;;8.87;39.90;100494.63;4897209;29;20055;-86
2023/03/06 06:52:42;;;;;;;13.35;6.20;;;;;;;8.84;40.06;100498.47;4912779;29;20046;-81
2023/03/06 06:55:08;;;;;;;9.23;5.90;;;;;;;8.49;40.52;100507.34;4937868;29;20044;-89
2023/03/06 06:57:34;;;;;;;10.52;6.25;;;;;;;8.04;41.58;100495.59;4908995;29;20489;-91
2023/03/06 07:00:00;;;;;;;12.20;7.13;;;;;;;8.81;40.57;100497.94;4923164;29;20052;-88
2023/03/06 07:02:26;;;;;;;11.00;6.57;;;;;;;9.38;38.85;100509.13;4898680;29;20103;-94
2023/03/06 07:04:55;;;;;;;13.27;6.55;;;;;;;9.68;38.25;100512.34;4928173;29;20044;-90
2023/03/06 07:07:22;;;;;;;11.27;6.68;;;;;;;10.17;37.96;100514.44;4904826;29;20063;-93
2023/03/06 07:09:52;;;;;;;12.15;6.95;;;;;;;11.16;35.71;100500.22;4895472;29;20044;-90
2023/03/06 07:12:21;;;;;;;12.63;7.30;;;;;;;11.91;34.19;100494.53;4897664;29;20043;-86
2023/03/06 07:14:47;;;;;;;13.73;7.53;;;;;;;12.25;34.20;100506.88;4882296;29;20139;-87
2023/03/06 07:17:12;;;;;;;;;;;;;;;12.60;33.23;100510.06;4881455;29;22319;-87
2023/03/06 07:19:39;;;;;;;14.60;8.30;;;;;;;12.89;32.58;100525.56;4896219;29;19954;-86
2023/03/06 07:22:07;;;;;;;12.90;9.00;;;;;;;13.26;32.00;100511.25;4898131;29;20040;-86
2023/03/06 07:24:34;;;;;;;15.65;10.43;;;;;;;13.69;32.32;100508.00;4865806;29;20056;-87
2023/03/06 07:26:59;;;;;;;;;;;;;;;14.08;30.48;100521.25;4881855;29;20130;-87
2023/03/06 07:29:26;;;;;;;16.17;9.60;;;;;;;14.10;30.35;100518.38;4899198;29;19966;-85
2023/03/06 07:31:51;;;;;;;14.80;9.40;;;;;;;14.08;30.09;100505.03;4887217;29;20580;-86
2023/03/06 07:34:19;;;;;;;14.82;8.55;;;;;;;13.73;30.30;100520.97;4901487;29;20040;-85
2023/03/06 07:36:45;;;;;;;13.55;7.82;;;;;;;13.42;30.77;100515.72;4899531;29;20111;-87
2023/03/06 07:39:11;;;;;;;13.80;7.85;;;;;;;13.16;30.75;100510.69;4909856;29;20044;-87
2023/03/06 07:41:43;;;;;;;15.40;8.20;;;;;;;13.17;30.88;100495.31;4968700;23;20543;-93
2023/03/06 07:44:25;;;;;;;15.63;7.97;;;;;;;13.51;30.63;100498.41;4953977;28;20036;-93
2023/03/06 07:46:51;;;;;;;11.05;6.43;;;;;;;12.78;30.47;100502.53;4949109;29;20055;-85
2023/03/06 07:49:17;;;;;;;14.20;6.50;;;;;;;12.07;31.92;100525.16;4935496;29;20339;-86
2023/03/06 07:51:42;;;;;;;;;;;;;;;11.96;31.72;100523.66;4957258;29;20039;-85
2023/03/06 07:54:08;;;;;;;14.52;6.00;;;;;;;11.66;32.25;100517.13;4959829;28;19964;-87
2023/03/06 07:56:33;;;;;;;12.27;6.15;;;;;;;11.71;32.37;100530.94;4922979;29;20090;-87
2023/03/06 07:59:04;;;;;;;9.57;5.85;;;;;;;12.53;31.59;100533.38;4948476;29;20043;-89
2023/03/06 08:01:32;;;;;;;11.23;6.28;;;;;;;12.63;31.59;100536.69;4950668;29;20554;-90
2023/03/06 08:03:58;;;;;;;9.55;6.45;;;;;;;12.61;31.58;100526.06;4953144;29;20039;-87
2023/03/06 08:06:26;;;;;;;15.15;6.80;;;;;;;12.96;31.51;100520.28;4926444;29;20042;-89
2023/03/06 08:08:58;;;;;;;12.27;6.90;;;;;;;13.50;30.60;100528.28;4951337;28;20047;-88
2023/03/06 08:11:29;;;;;;;10.48;6.90;;;;;;;13.39;30.15;100536.81;4932346;29;20047;-90
2023/03/06 08:13:55;;;;;;;14.05;6.50;;;;;;;14.54;28.92;100523.75;4939816;29;20597;-89
2023/03/06 08:16:21;;;;;;;17.38;7.38;;;;;;;15.58;27.55;100517.03;4928016;29;20146;-86
2023/03/06 08:18:47;;;;;;;12.93;7.32;;;;;;;16.17;26.38;100513.84;4951105;29;20047;-89
2023/03/06 08:21:14;;;;;;;;;;;;;;;17.97;24.73;100532.34;4925326;29;20571;-84
2023/03/06 08:23:41;;;;;;;13.27;7.30;;;;;;;18.89;23.17;100511.25;4948923;29;19922;-85
2023/03/06 08:26:13;;;;;;;15.52;7.40;;;;;;;19.28;22.61;100523.75;4948029;29;20051;-90
2023/03/06 08:28:41;;;;;;;10.50;6.93;;;;;;;19.35;21.92;100526.44;4926861;29;20039;-88
2023/03/06 08:31:30;;;;;;;11.95;6.78;;;;;;;19.22;21.88;100529.25;4953505;28;20039;-87
2023/03/06 08:34:00;;;;;;;11.35;6.88;;;;;;;19.67;21.76;100510.84;4942999;29;20520;-86
2023/03/06 08:36:30;;;;;;;11.02;6.40;;;;;;;20.13;21.29;100525.91;4963251;28;20040;-87
2023/03/06 08:39:04;;;;;;;10.50;7.30;;;;;;;21.11;20.65;100526.75;4944483;29;20137;-86
2023/03/06 08:41:32;;;;;;;13.70;7.63;;;;;;;22.28;19.72;100517.78;4951184;29;20063;-84
2023/03/06 08:43:58;;;;;;;13.48;7.10;;;;;;;22.34;19.49;100521.47;4952865;28;20055;-87
2023/03/06 08:46:28;;;;;;;13.50;7.18;;;;;;;23.28;18.39;100523.81;4951783;28;20118;-91
2023/03/06 08:48:55;;;;;;;11.63;7.18;;;;;;;24.62;17.51;100499.91;4952046;28;20039;-86
2023/03/06 08:51:21;;;;;;;14.23;7.60;;;;;;;24.08;17.80;100509.94;4952236;29;20452;-87
2023/03/06 08:53:46;;;;;;;11.18;7.43;;;;;;;25.23;16.41;100509.88;4943703;29;20153;-89
2023/03/06 08:56:32;;;;;;;8.90;7.10;;;;;;;24.91;16.66;100501.56;4951387;29;20043;-87
2023/03/06 08:58:59;;;;;;;10.80;6.60;;;;;;;24.98;16.36;100513.19;4950460;29;20493;-86
2023/03/06 09:01:29;;;;;;;9.82;6.57;;;;;;;24.84;16.83;100512.78;4950534;28;20043;-89
2023/03/06 09:04:15;;;;;;;8.93;6.53;;;;;;;26.86;15.64;100511.91;4933857;29;20032;-93
2023/03/06 09:06:43;;;;;;;11.88;6.93;;;;;;;27.33;14.99;100502.59;4955867;29;20154;-93
2023/03/06 09:09:09;;;;;;;10.77;7.07;;;;;;;28.26;14.10;100487.47;4954730;29;20125;-89
2023/03/06 09:11:37;;;;;;;9.00;6.88;;;;;;;27.24;15.03;100516.09;4947703;29;20056;-89
2023/03/06 09:14:03;;;;;;;9.68;6.93;;;;;;;28.50;14.06;100508.97;4934744;29;20448;-88
2023/03/06 09:16:32;;;;;;;9.48;7.10;;;;;;;28.82;13.36;100516.78;4952766;28;20051;-91
2023/03/06 09:18:59;;;;;;;11.43;7.72;;;;;;;28.98;13.02;100520.28;4949313;28;20452;-89
2023/03/06 09:21:27;;;;;;;10.98;6.88;;;;;;;28.25;13.58;100518.97;4952073;28;20051;-86
2023/03/06 09:23:54;;;;;;;12.68;7.00;;;;;;;26.90;14.10;100515.75;4930338;29;20083;-88
2023/03/06 09:26:21;;;;;;;11.52;7.10;;;;;;;27.38;14.06;100510.84;4923285;29;20043;-89
2023/03/06 09:28:47;;;;;;;9.65;6.57;;;;;;;27.39;13.84;100514.44;4927195;29;20093;-91
2023/03/06 09:31:14;;;;;;;10.00;7.20;;;;;;;26.67;14.36;100517.09;4931497;29;20114;-90
2023/03/06 09:33:41;;;;;;;9.82;7.00;;;;;;;29.24;13.17;100507.94;4949262;29;20111;-85
2023/03/06 09:36:08;;;;;;;11.57;6.90;;;;;;;28.01;13.33;100513.28;4936525;29;20047;-88
2023/03/06 09:38:34;;;;;;;9.98;6.68;;;;;;;28.15;13.79;100507.97;4945302;29;20464;-89
2023/03/06 09:41:03;;;;;;;10.00;7.07;;;;;;;27.86;13.57;100519.66;4935999;28;20039;-94
2023/03/06 09:43:42;;;;;;;9.85;7.15;;;;;;;27.99;13.29;100512.72;4949219;29;20496;-94
2023/03/06 09:46:39;;;;;;;10.77;6.15;;;;;;;28.31;13.52;100508.75;4952008;28;20105;-89
2023/03/06 09:49:42;;;;;;;10.80;7.28;;;;;;;30.59;12.30;100508.19;4940111;29;20507;-88
2023/03/06 09:52:34;;;;;;;10.27;6.97;;;;;;;30.13;12.27;100503.19;4950215;28;20066;-90
2023/03/06 09:55:17;;;;;;;11.07;7.22;;;;;;;28.84;12.72;100503.50;4953056;29;20047;-92
2023/03/06 09:57:53;;;;;;;13.32;6.68;;;;;;;28.66;12.47;100498.63;4938980;29;20075;-91
2023/03/06 10:00:52;;;;;;;9.02;6.88;;;;;;;27.09;14.51;100503.09;4930613;29;20043;-91
2023/03/06 10:03:55;;;;;;;12.57;7.88;;;;;;;28.17;13.48;100484.47;4941416;29;20074;-90
2023/03/06 10:06:33;;;;;;;11.35;7.32;;;;;;;25.12;15.20;100492.41;4931513;29;20160;-95
2023/03/06 10:09:23;;;;;;;10.48;6.68;;;;;;;23.54;16.22;100496.78;4963797;28;20357;-91
2023/03/06 10:11:52;;;;;;;9.13;6.68;;;;;;;20.81;19.07;100500.31;4955218;28;20043;-93
2023/03/06 10:14:25;;;;;;;11.02;6.50;;;;;;;20.62;19.35;100501.41;4949741;29;20047;-87
2023/03/06 10:16:53;;;;;;;13.27;6.93;;;;;;;19.77;20.19;100502.19;4950128;29;20127;-91
2023/03/06 10:19:19;;;;;;;11.13;6.97;;;;;;;18.17;21.53;100505.94;4931277;29;20070;-88
2023/03/06 10:22:22;;;;;;;15.05;7.30;;;;;;;17.41;22.65;100506.44;4934509;29;20055;-87
2023/03/06 10:25:26;;;;;;;12.90;7.03;;;;;;;17.18;22.74;100491.38;4943815;28;20043;-91
2023/03/06 10:28:01;;;;;;;12.65;7.13;;;;;;;16.60;23.58;100494.63;4931666;29;20071;-88
2023/03/06 10:30:26;;;;;;;13.60;7.28;;;;;;;16.10;24.49;100494.00;4952192;28;20039;-90
2023/03/06 10:32:53;;;;;;;;;;;;;;;15.61;24.49;100478.69;4946192;28;20047;-86
2023/03/06 10:35:35;;;;;;;12.88;7.30;;;;;;;17.62;22.53;100483.66;4947604;28;20009;-89
2023/03/06 10:38:22;;;;;;;12.02;6.70;;;;;;;18.43;21.78;100479.66;4947410;29;20122;-87
2023/03/06 10:41:11;;;;;;;11.20;6.70;;;;;;;20.05;19.45;100479.84;4954374;28;20043;-86
2023/03/06 10:43:46;;;;;;;10.88;7.10;;;;;;;20.99;18.82;100476.69;4957217;28;20066;-87
2023/03/06 10:46:15;;;;;;;13.63;7.50;;;;;;;20.05;19.43;100477.09;4918752;29;20090;-84
2023/03/06 10:48:40;;;;;;;15.48;7.43;;;;;;;18.87;21.20;100475.22;4946567;28;20473;-86
2023/03/06 10:51:18;;;;;;;9.80;6.93;;;;;;;18.56;21.07;100469.50;4948254;28;20043;-89
2023/03/06 10:53:56;;;;;;;13.63;7.13;;;;;;;18.17;21.67;100480.59;4946369;29;20085;-89
2023/03/06 10:56:40;;;;;;;13.02;6.93;;;;;;;17.08;22.58;100480.94;4934934;29;20050;-89
2023/03/06 10:59:12;;;;;;;10.65;7.00;;;;;;;16.32;23.55;100469.47;4941178;28;20126;-88
2023/03/06 11:01:40;;;;;;;15.32;8.35;;;;;;;16.04;23.91;100446.03;4937350;29;20148;-90
2023/03/06 11:04:30;;;;;;;16.90;9.48;;;;;;;16.12;26.63;100469.41;4945281;28;20460;-86
2023/03/06 11:07:16;;;;;;;15.25;8.85;;;;;;;15.93;25.79;100433.03;4945981;29;20032;-86
2023/03/06 11:10:01;;;;;;;18.40;8.68;;;;;;;18.18;22.47;100458.63;4953918;28;20039;-85
2023/03/06 11:12:33;;;;;;;17.65;8.50;;;;;;;18.27;22.21;100448.34;4948565;29;20449;-86
2023/03/06 11:15:29;;;;;;;12.35;7.38;;;;;;;17.58;22.64;100441.63;4952424;28;20046;-87
2023/03/06 11:18:08;;;;;;;13.05;7.53;;;;;;;17.34;23.14;100446.66;4950708;28;20093;-85
2023/03/06 11:20:44;;;;;;;13.63;8.35;;;;;;;18.08;23.10;100441.94;4948026;28;20044;-86
2023/03/06 11:23:14;;;;;;;;;;;;;;;18.61;21.82;100447.06;4934230;29;20047;-88
2023/03/06 11:25:47;;;;;;;17.90;9.02;;;;;;;19.82;21.12;100412.31;4984490;28;19970;-85
2023/03/06 11:28:29;;;;;;;15.85;9.27;;;;;;;20.97;19.22;100451.50;4961562;28;20020;-88
2023/03/06 11:31:03;;;;;;;17.33;9.10;;;;;;;21.80;18.53;100430.53;4945354;29;20049;-87
2023/03/06 11:33:53;;;;;;;16.77;9.70;;;;;;;22.17;18.29;100413.72;4939460;29;20035;-89
2023/03/06 11:36:25;;;;;;;14.38;9.45;;;;;;;22.97;18.42;100432.78;4954512;28;20090;-87